createdAt,value
2022-10-17T00:00:05.321Z,9.85
2022-10-17T00:02:37.269Z,10.82
2022-10-17T00:05:16.376Z,9.85
2022-10-17T00:07:50.626Z,8.38
2022-10-17T00:10:33.564Z,8.77
2022-10-17T00:13:03.514Z,12.70
2022-10-17T00:15:48.370Z,7.90
2022-10-17T00:18:20.637Z,11.68
2022-10-17T00:20:53.529Z,10.55
2022-10-17T00:23:25.641Z,8.30
2022-10-17T00:26:06.440Z,8.45
2022-10-17T00:28:36.929Z,12.02
2022-10-17T00:31:10.243Z,10.45
2022-10-17T00:33:48.169Z,8.05
2022-10-17T00:36:31.661Z,8.60
2022-10-17T00:39:04.901Z,13.05
2022-10-17T00:41:48.991Z,9.18
2022-10-17T00:45:06.008Z,10.80
2022-10-17T00:47:45.676Z,7.90
2022-10-17T00:50:16.908Z,9.25
2022-10-17T00:52:52.236Z,9.82
2022-10-17T00:55:29.840Z,7.25
2022-10-17T00:58:08.342Z,11.65
2022-10-17T01:00:41.497Z,8.18
2022-10-17T01:03:16.481Z,13.55
2022-10-17T01:05:50.644Z,9.68
2022-10-17T01:08:42.577Z,9.05
2022-10-17T01:11:36.877Z,10.60
2022-10-17T01:14:18.500Z,9.50
2022-10-17T01:16:58.672Z,11.75
2022-10-17T01:20:01.112Z,8.52
2022-10-17T01:22:42.329Z,9.95
2022-10-17T01:25:37.286Z,11.10
2022-10-17T01:28:40.146Z,10.45
2022-10-17T01:31:32.593Z,10.53
2022-10-17T01:34:16.969Z,11.13
2022-10-17T01:36:59.747Z,11.93
2022-10-17T01:39:45.320Z,9.45
2022-10-17T01:42:31.607Z,10.43
2022-10-17T01:45:15.305Z,12.50
2022-10-17T01:47:58.726Z,11.25
2022-10-17T01:53:49.317Z,8.48
2022-10-17T01:56:38.061Z,9.60
2022-10-17T02:02:12.148Z,7.97
2022-10-17T02:07:44.019Z,8.50
2022-10-17T02:10:31.889Z,10.48
2022-10-17T02:13:17.402Z,10.40
2022-10-17T02:16:04.068Z,9.32
2022-10-17T02:19:01.089Z,13.07
2022-10-17T02:21:55.391Z,8.95
2022-10-17T02:24:37.608Z,10.75
2022-10-17T02:27:17.640Z,11.55
2022-10-17T02:30:01.517Z,12.30
2022-10-17T02:32:52.596Z,10.38
2022-10-17T02:35:30.462Z,10.52
2022-10-17T02:38:04.516Z,10.52
2022-10-17T02:40:47.541Z,10.57
2022-10-17T02:43:25.402Z,7.15
2022-10-17T02:45:57.758Z,10.70
2022-10-17T02:48:45.707Z,9.65
2022-10-17T02:51:30.236Z,8.43
2022-10-17T02:54:14.903Z,9.38
2022-10-17T02:56:54.937Z,9.65
2022-10-17T02:59:37.959Z,8.70
2022-10-17T03:02:11.946Z,10.43
2022-10-17T03:04:57.911Z,9.27
2022-10-17T03:07:35.835Z,10.32
2022-10-17T03:10:16.966Z,9.00
2022-10-17T03:12:54.522Z,9.30
2022-10-17T03:15:35.373Z,7.93
2022-10-17T03:18:22.627Z,9.93
2022-10-17T03:20:54.464Z,9.38
2022-10-17T03:23:37.931Z,8.05
2022-10-17T03:26:16.513Z,7.15
2022-10-17T03:28:54.516Z,8.05
2022-10-17T03:31:28.491Z,8.38
2022-10-17T03:34:18.796Z,8.80
2022-10-17T03:37:09.809Z,8.73
2022-10-17T03:39:44.217Z,9.02
2022-10-17T03:45:13.262Z,6.15
2022-10-17T03:47:48.965Z,12.50
2022-10-17T03:50:19.229Z,7.65
2022-10-17T03:52:59.681Z,7.80
2022-10-17T03:55:30.538Z,8.20
2022-10-17T03:58:19.207Z,6.93
2022-10-17T04:00:59.960Z,7.18
2022-10-17T04:03:34.793Z,6.97
2022-10-17T04:06:24.081Z,6.75
2022-10-17T04:09:01.167Z,7.57
2022-10-17T04:11:44.255Z,7.68
2022-10-17T04:14:46.774Z,7.47
2022-10-17T04:17:21.564Z,9.52
2022-10-17T04:19:58.660Z,8.13
2022-10-17T04:22:36.698Z,7.95
2022-10-17T04:25:14.398Z,10.23
2022-10-17T04:27:44.992Z,9.60
2022-10-17T04:30:30.356Z,8.07
2022-10-17T04:33:03.883Z,7.78
2022-10-17T04:35:36.687Z,10.45
2022-10-17T04:38:14.219Z,8.35
2022-10-17T04:40:54.513Z,8.00
2022-10-17T04:43:29.208Z,8.50
2022-10-17T04:46:07.854Z,9.07
2022-10-17T04:48:49.089Z,7.57
2022-10-17T04:51:32.472Z,10.75
2022-10-17T04:54:22.894Z,9.20
2022-10-17T04:57:02.476Z,8.63
2022-10-17T04:59:54.245Z,10.40
2022-10-17T05:02:44.486Z,8.20
2022-10-17T05:05:34.498Z,7.78
2022-10-17T05:08:27.405Z,8.32
2022-10-17T05:13:38.562Z,9.27
2022-10-17T05:16:15.435Z,11.63
2022-10-17T05:18:55.197Z,11.02
2022-10-17T05:27:22.884Z,10.68
2022-10-17T05:30:02.419Z,12.63
2022-10-17T05:32:35.142Z,12.82
2022-10-17T05:35:23.157Z,13.02
2022-10-17T05:38:08.897Z,12.52
2022-10-17T05:40:50.513Z,12.00
2022-10-17T05:43:22.920Z,13.20
2022-10-17T05:45:52.371Z,12.02
2022-10-17T05:48:23.781Z,15.23
2022-10-17T05:51:09.910Z,10.07
2022-10-17T05:53:46.903Z,14.40
2022-10-17T05:56:21.280Z,12.38
2022-10-17T05:58:57.384Z,12.63
2022-10-17T06:01:30.567Z,13.52
2022-10-17T06:04:00.952Z,9.82
2022-10-17T06:06:37.714Z,10.20
2022-10-17T06:09:17.911Z,10.15
2022-10-17T06:11:50.059Z,15.00
2022-10-17T06:14:29.262Z,10.40
2022-10-17T06:16:59.793Z,9.55
2022-10-17T06:19:32.951Z,11.25
2022-10-17T06:22:03.888Z,11.52
2022-10-17T06:24:32.948Z,11.45
2022-10-17T06:27:02.499Z,8.90
2022-10-17T06:29:35.382Z,10.63
2022-10-17T06:32:05.176Z,11.32
2022-10-17T06:34:36.184Z,12.30
2022-10-17T06:37:07.314Z,11.60
2022-10-17T06:39:37.018Z,11.18
2022-10-17T06:42:09.792Z,10.50
2022-10-17T06:44:42.670Z,13.52
2022-10-17T06:47:12.710Z,12.63
2022-10-17T06:49:42.759Z,11.95
2022-10-17T06:52:24.335Z,11.63
2022-10-17T06:54:53.288Z,14.85
2022-10-17T06:57:22.282Z,11.90
2022-10-17T06:59:50.431Z,13.05
2022-10-17T07:02:21.541Z,10.98
2022-10-17T07:04:53.210Z,10.50
2022-10-17T07:07:23.942Z,9.80
2022-10-17T07:09:53.164Z,10.13
2022-10-17T07:12:22.062Z,13.00
2022-10-17T07:14:52.980Z,11.80
2022-10-17T07:17:24.964Z,12.13
2022-10-17T07:19:54.591Z,13.55
2022-10-17T07:22:25.380Z,9.75
2022-10-17T07:25:00.013Z,9.55
2022-10-17T07:27:29.633Z,10.45
2022-10-17T07:29:59.917Z,11.10
2022-10-17T07:32:32.087Z,8.60
2022-10-17T07:35:01.111Z,9.10
2022-10-17T07:37:32.031Z,8.95
2022-10-17T07:40:01.156Z,8.43
2022-10-17T07:42:29.677Z,8.75
2022-10-17T07:45:01.534Z,8.57
2022-10-17T07:47:38.019Z,10.02
2022-10-17T07:50:07.034Z,8.02
2022-10-17T07:52:37.325Z,8.30
2022-10-17T07:55:09.736Z,10.07
2022-10-17T07:57:45.268Z,8.05
2022-10-17T08:00:18.753Z,8.95
2022-10-17T08:02:47.213Z,7.63
2022-10-17T08:05:18.417Z,8.57
2022-10-17T08:07:48.805Z,5.72
2022-10-17T08:10:19.082Z,5.88
2022-10-17T08:12:51.490Z,7.43
2022-10-17T08:15:23.165Z,5.70
2022-10-17T08:17:55.588Z,7.50
2022-10-17T08:20:25.531Z,5.80
2022-10-17T08:22:58.852Z,7.30
2022-10-17T08:25:40.034Z,4.85
2022-10-17T08:28:12.813Z,5.00
2022-10-17T08:30:43.706Z,7.05
2022-10-17T08:33:12.812Z,6.22
2022-10-17T08:35:43.942Z,6.38
2022-10-17T08:38:16.010Z,8.77
2022-10-17T08:40:51.400Z,5.90
2022-10-17T08:43:35.607Z,7.75
2022-10-17T08:46:09.558Z,5.10
2022-10-17T08:48:46.327Z,7.28
2022-10-17T08:51:20.496Z,6.90
2022-10-17T08:54:08.538Z,6.70
2022-10-17T08:56:48.448Z,5.10
2022-10-17T08:59:21.864Z,4.53
2022-10-17T09:02:00.041Z,9.77
2022-10-17T09:04:52.969Z,6.97
2022-10-17T09:07:28.883Z,5.13
2022-10-17T09:10:06.708Z,6.35
2022-10-17T09:12:45.197Z,4.88
2022-10-17T09:15:39.218Z,5.45
2022-10-17T09:18:21.106Z,3.67
2022-10-17T09:20:54.612Z,5.25
2022-10-17T09:23:29.692Z,7.10
2022-10-17T09:26:02.105Z,6.93
2022-10-17T09:28:36.611Z,8.00
2022-10-17T09:31:13.058Z,5.53
2022-10-17T09:33:53.803Z,4.15
2022-10-17T09:36:27.135Z,4.20
2022-10-17T09:39:01.843Z,5.13
2022-10-17T09:41:46.860Z,5.75
2022-10-17T09:44:23.403Z,6.25
2022-10-17T09:47:22.945Z,5.70
2022-10-17T09:49:53.916Z,5.60
2022-10-17T09:52:30.051Z,5.70
2022-10-17T09:55:03.210Z,5.53
2022-10-17T10:00:30.678Z,4.72
2022-10-17T10:03:22.216Z,4.05
2022-10-17T10:06:05.151Z,7.55
2022-10-17T10:08:39.921Z,9.35
2022-10-17T10:11:14.407Z,5.05
2022-10-17T10:13:56.522Z,4.32
2022-10-17T10:16:36.205Z,8.68
2022-10-17T10:19:24.204Z,5.13
2022-10-17T10:21:59.812Z,5.47
2022-10-17T10:24:31.398Z,3.92
2022-10-17T10:27:04.732Z,3.47
2022-10-17T10:29:41.830Z,4.55
2022-10-17T10:32:21.914Z,5.60
2022-10-17T10:34:54.479Z,3.92
2022-10-17T10:37:24.965Z,4.30
2022-10-17T10:39:58.148Z,4.03
2022-10-17T10:42:29.888Z,4.82
2022-10-17T10:45:19.090Z,6.47
2022-10-17T10:48:03.668Z,4.28
2022-10-17T10:50:42.994Z,5.72
2022-10-17T10:53:34.941Z,3.60
2022-10-17T10:56:18.135Z,4.95
2022-10-17T10:59:01.948Z,6.45
2022-10-17T11:01:39.902Z,8.25
2022-10-17T11:04:22.013Z,3.72
2022-10-17T11:06:58.969Z,3.38
2022-10-17T11:09:36.609Z,4.00
2022-10-17T11:12:10.440Z,4.00
2022-10-17T11:14:50.813Z,3.58
2022-10-17T11:17:33.666Z,6.05
2022-10-17T11:20:18.997Z,3.55
2022-10-17T11:22:52.908Z,4.18
2022-10-17T11:25:35.403Z,4.38
2022-10-17T11:28:08.164Z,3.63
2022-10-17T11:33:26.612Z,2.90
2022-10-17T11:35:59.348Z,3.97
2022-10-17T11:38:41.072Z,6.00
2022-10-17T11:41:13.861Z,4.07
2022-10-17T11:46:17.246Z,3.72
2022-10-17T11:49:02.756Z,4.13
2022-10-17T11:57:10.724Z,4.80
2022-10-17T12:00:06.275Z,3.47
2022-10-17T12:02:43.372Z,3.40
2022-10-17T12:05:24.043Z,5.50
2022-10-17T12:07:59.935Z,3.63
2022-10-17T12:10:42.243Z,3.22
2022-10-17T12:13:49.135Z,4.15
2022-10-17T12:16:45.696Z,2.63
2022-10-17T12:19:30.989Z,3.15
2022-10-17T12:22:07.253Z,4.35
2022-10-17T12:24:43.479Z,3.17
2022-10-17T12:27:55.808Z,4.30
2022-10-17T12:30:30.008Z,4.57
2022-10-17T12:33:12.804Z,4.45
2022-10-17T12:35:44.339Z,3.35
2022-10-17T12:38:23.493Z,4.50
2022-10-17T12:40:56.564Z,2.45
2022-10-17T12:43:58.152Z,4.45
2022-10-17T12:46:52.082Z,4.25
2022-10-17T12:49:41.675Z,4.50
2022-10-17T12:52:43.305Z,4.13
2022-10-17T12:55:18.973Z,6.15
2022-10-17T12:57:57.592Z,3.47
2022-10-17T13:00:49.830Z,3.72
2022-10-17T13:03:32.012Z,3.97
2022-10-17T13:06:05.132Z,2.75
2022-10-17T13:08:37.472Z,5.10
2022-10-17T13:11:10.501Z,3.33
2022-10-17T13:13:43.380Z,3.78
2022-10-17T13:16:29.344Z,5.82
2022-10-17T13:18:59.491Z,4.45
2022-10-17T13:21:28.815Z,2.75
2022-10-17T13:23:57.453Z,6.57
2022-10-17T13:26:29.333Z,2.70
2022-10-17T13:29:07.173Z,3.53
2022-10-17T13:31:37.290Z,5.50
2022-10-17T13:34:07.955Z,3.25
2022-10-17T13:36:36.857Z,4.32
2022-10-17T13:39:12.417Z,5.00
2022-10-17T13:41:43.457Z,3.92
2022-10-17T13:44:16.115Z,4.88
2022-10-17T13:49:22.172Z,2.97
2022-10-17T13:51:55.405Z,4.63
2022-10-17T13:54:36.144Z,4.63
2022-10-17T13:57:06.638Z,5.10
2022-10-17T13:59:42.243Z,4.80
2022-10-17T14:02:20.324Z,4.38
2022-10-17T14:05:15.683Z,4.88
2022-10-17T14:08:09.233Z,5.15
2022-10-17T14:10:34.235Z,3.67
2022-10-17T14:13:06.433Z,6.80
2022-10-17T14:15:37.498Z,3.53
2022-10-17T14:18:08.262Z,3.95
2022-10-17T14:23:34.828Z,4.60
2022-10-17T14:26:10.046Z,4.78
2022-10-17T14:28:40.391Z,6.50
2022-10-17T14:31:17.455Z,4.07
2022-10-17T14:33:50.678Z,4.65
2022-10-17T14:36:22.503Z,4.40
2022-10-17T14:38:52.948Z,4.47
2022-10-17T14:44:28.556Z,3.20
2022-10-17T14:47:00.212Z,5.22
2022-10-17T14:49:38.275Z,5.32
2022-10-17T14:52:28.701Z,3.55
2022-10-17T14:54:58.953Z,4.03
2022-10-17T14:57:43.434Z,7.45
2022-10-17T15:00:19.386Z,5.00
2022-10-17T15:02:49.443Z,4.47
2022-10-17T15:05:19.548Z,3.28
2022-10-17T15:07:47.759Z,4.82
2022-10-17T15:10:34.288Z,3.97
2022-10-17T15:16:04.213Z,4.65
2022-10-17T15:18:39.850Z,6.50
2022-10-17T15:21:38.468Z,4.22
2022-10-17T15:24:20.154Z,3.85
2022-10-17T15:26:50.957Z,3.88
2022-10-17T15:29:22.218Z,4.22
2022-10-17T15:31:52.689Z,3.25
2022-10-17T15:34:25.944Z,3.70
2022-10-17T15:36:55.554Z,4.28
2022-10-17T15:39:30.375Z,2.80
2022-10-17T15:42:03.472Z,4.15
2022-10-17T15:44:35.564Z,2.97
2022-10-17T15:47:17.431Z,5.55
2022-10-17T15:49:53.672Z,3.63
2022-10-17T15:52:30.715Z,6.32
2022-10-17T15:55:06.147Z,5.13
2022-10-17T15:57:41.381Z,4.32
2022-10-17T16:00:17.391Z,4.38
2022-10-17T16:02:49.502Z,5.80
2022-10-17T16:05:28.319Z,6.03
2022-10-17T16:08:02.079Z,3.97
2022-10-17T16:10:30.326Z,4.65
2022-10-17T16:13:02.020Z,7.03
2022-10-17T16:15:31.453Z,6.57
2022-10-17T16:18:06.612Z,5.35
2022-10-17T16:20:38.831Z,7.32
2022-10-17T16:23:08.897Z,5.93
2022-10-17T16:25:40.493Z,6.47
2022-10-17T16:28:09.637Z,5.97
2022-10-17T16:30:46.498Z,10.57
2022-10-17T16:33:16.965Z,5.97
2022-10-17T16:35:46.959Z,4.68
2022-10-17T16:38:16.830Z,6.85
2022-10-17T16:40:55.789Z,5.32
2022-10-17T16:43:26.490Z,6.72
2022-10-17T16:46:05.999Z,7.82
2022-10-17T16:48:48.541Z,7.07
2022-10-17T16:51:30.305Z,7.77
2022-10-17T16:54:00.408Z,7.67
2022-10-17T16:56:36.192Z,9.13
2022-10-17T17:02:16.352Z,9.25
2022-10-17T17:05:15.400Z,8.95
2022-10-17T17:10:37.407Z,8.63
2022-10-17T17:13:21.140Z,8.23
2022-10-17T17:16:12.812Z,9.77
2022-10-17T17:18:47.581Z,9.10
2022-10-17T17:21:33.760Z,8.55
2022-10-17T17:24:11.019Z,9.38
2022-10-17T17:26:49.310Z,9.73
2022-10-17T17:29:23.684Z,9.38
2022-10-17T17:32:06.250Z,9.25
2022-10-17T17:34:39.180Z,5.80
2022-10-17T17:37:19.755Z,7.93
2022-10-17T17:39:57.371Z,9.68
2022-10-17T17:42:28.369Z,13.45
2022-10-17T17:48:20.168Z,6.00
2022-10-17T17:50:59.264Z,6.72
2022-10-17T17:53:38.323Z,10.77
2022-10-17T17:56:19.913Z,10.48
2022-10-17T17:59:10.901Z,14.10
2022-10-17T18:01:52.568Z,9.25
2022-10-17T18:04:36.302Z,8.15
2022-10-17T18:07:27.737Z,10.57
2022-10-17T18:12:44.725Z,8.00
2022-10-17T18:15:33.121Z,8.93
2022-10-17T18:18:13.284Z,7.55
2022-10-17T18:21:02.280Z,8.13
2022-10-17T18:23:44.959Z,10.75
2022-10-17T18:29:14.155Z,11.43
2022-10-17T18:32:17.917Z,6.88
2022-10-17T18:34:52.948Z,6.47
2022-10-17T18:37:27.392Z,7.60
2022-10-17T18:40:11.638Z,7.97
2022-10-17T18:42:50.148Z,7.35
2022-10-17T18:45:24.841Z,6.20
2022-10-17T18:48:01.514Z,7.53
2022-10-17T18:50:45.436Z,9.23
2022-10-17T18:53:15.214Z,7.72
2022-10-17T18:55:48.778Z,10.75
2022-10-17T18:58:24.791Z,7.07
2022-10-17T19:00:58.158Z,9.27
2022-10-17T19:06:34.270Z,8.25
2022-10-17T19:09:15.657Z,9.50
2022-10-17T19:12:05.121Z,9.93
2022-10-17T19:14:50.113Z,8.98
2022-10-17T19:17:25.079Z,10.45
2022-10-17T19:19:59.336Z,10.32
2022-10-17T19:25:33.105Z,11.30
2022-10-17T19:28:11.920Z,9.70
2022-10-17T19:30:54.501Z,10.07
2022-10-17T19:33:43.351Z,12.93
2022-10-17T19:36:19.291Z,11.50
2022-10-17T19:38:54.951Z,13.23
2022-10-17T19:41:27.745Z,12.80
2022-10-17T19:44:02.129Z,12.90
2022-10-17T19:46:44.777Z,11.52
2022-10-17T19:49:21.599Z,13.13
2022-10-17T19:52:06.117Z,10.88
2022-10-17T19:54:48.819Z,11.05
2022-10-17T19:57:28.392Z,12.95
2022-10-17T19:59:58.665Z,13.57
2022-10-17T20:02:34.016Z,11.82
2022-10-17T20:05:18.397Z,15.45
2022-10-17T20:07:50.438Z,8.88
2022-10-17T20:10:23.361Z,9.82
2022-10-17T20:15:33.300Z,10.90
2022-10-17T20:18:16.962Z,12.40
2022-10-17T20:20:52.052Z,13.82
2022-10-17T20:23:24.067Z,14.50
2022-10-17T20:26:37.141Z,13.50
2022-10-17T20:29:20.707Z,16.20
2022-10-17T20:31:59.646Z,16.63
2022-10-17T20:34:47.331Z,18.02
2022-10-17T20:37:19.697Z,14.95
2022-10-17T20:40:29.542Z,12.32
2022-10-17T20:42:53.822Z,15.48
2022-10-17T20:48:29.437Z,13.98
2022-10-17T20:50:59.863Z,15.32
2022-10-17T20:53:37.083Z,14.68
2022-10-17T20:56:39.489Z,14.10
2022-10-17T20:59:20.809Z,15.55
2022-10-17T21:01:54.510Z,13.68
2022-10-17T21:04:47.028Z,15.43
2022-10-17T21:07:41.345Z,13.20
2022-10-17T21:10:34.552Z,14.32
2022-10-17T21:13:21.711Z,11.57
2022-10-17T21:16:02.667Z,17.50
2022-10-17T21:18:38.213Z,10.07
2022-10-17T21:21:30.164Z,11.30
2022-10-17T21:24:15.901Z,11.37
2022-10-17T21:26:55.637Z,10.82
2022-10-17T21:30:05.276Z,11.90
2022-10-17T21:32:51.107Z,12.07
2022-10-17T21:35:26.115Z,12.70
2022-10-17T21:38:14.383Z,9.90
2022-10-17T21:41:01.895Z,11.23
2022-10-17T21:43:53.651Z,12.25
2022-10-17T21:46:29.500Z,12.88
2022-10-17T21:49:14.163Z,13.52
2022-10-17T21:51:48.886Z,15.60
2022-10-17T21:54:24.214Z,13.48
2022-10-17T21:59:45.944Z,12.55
2022-10-17T22:02:23.046Z,13.02
2022-10-17T22:04:59.231Z,13.55
2022-10-17T22:07:39.476Z,11.07
2022-10-17T22:10:14.207Z,12.30
2022-10-17T22:12:53.729Z,11.00
2022-10-17T22:15:42.122Z,11.52
2022-10-17T22:18:27.505Z,12.95
2022-10-17T22:21:05.521Z,12.25
2022-10-17T22:23:42.313Z,12.07
2022-10-17T22:26:18.395Z,12.93
2022-10-17T22:29:01.622Z,14.30
2022-10-17T22:34:30.027Z,10.93
2022-10-17T22:37:04.619Z,16.85
2022-10-17T22:39:46.687Z,12.30
2022-10-17T22:42:26.777Z,14.73
2022-10-17T22:45:16.169Z,10.32
2022-10-17T22:47:55.240Z,11.85
2022-10-17T22:50:37.269Z,10.25
2022-10-17T22:53:16.829Z,11.50
2022-10-17T22:55:58.270Z,13.77
2022-10-17T22:58:33.329Z,10.27
2022-10-17T23:01:20.593Z,9.32
2022-10-17T23:03:51.206Z,12.32
2022-10-17T23:06:51.421Z,12.90
2022-10-17T23:09:31.103Z,13.95
2022-10-17T23:12:03.862Z,13.35
2022-10-17T23:14:37.838Z,12.55
2022-10-17T23:17:13.546Z,9.02
2022-10-17T23:20:04.906Z,12.52
2022-10-17T23:22:44.092Z,12.35
2022-10-17T23:25:17.693Z,13.05
2022-10-17T23:31:06.915Z,12.27
2022-10-17T23:37:07.312Z,12.15
2022-10-17T23:39:50.108Z,11.98
2022-10-17T23:42:39.374Z,13.52
2022-10-17T23:45:20.036Z,10.75
2022-10-17T23:47:59.586Z,12.38
2022-10-17T23:50:43.743Z,15.70
2022-10-17T23:53:15.550Z,12.40
2022-10-17T23:55:52.121Z,12.98
2022-10-17T23:58:30.335Z,9.70
